Terminal Aerodrome Forecast
Issued by NWS Charleston, WV

Current Version | Previous Version | Text Only | Print | Product List | Glossary Off
Versions: 1 2 3 4 5 6 7 8 9 10 11 12 13 14 15 16 17 18 19 20 21 22 23 24 25 26 27 28 29 30

500
FTUS41 KRLX 191246 CCA
TAFPKB
TAF COR
KPKB 191246Z 1913/2012 27010G23KT P6SM -SHRA OVC015
     FM191600 32010G18KT P6SM OVC025
     FM192000 32010G19KT P6SM BKN040
     FM200100 32006KT P6SM SCT070=

USA.gov is the U.S. government's official web portal to all federal, state and local government web resources and services.